createdAt,value
2022-07-29T00:00:05.737Z,12.38
2022-07-29T00:02:33.782Z,8.20
2022-07-29T00:05:00.947Z,10.18
2022-07-29T00:07:28.162Z,13.55
2022-07-29T00:09:55.357Z,10.23
2022-07-29T00:12:26.298Z,12.48
2022-07-29T00:14:58.045Z,7.82
2022-07-29T00:17:26.114Z,8.57
2022-07-29T00:19:53.549Z,7.30
2022-07-29T00:22:21.498Z,8.48
2022-07-29T00:24:50.398Z,11.15
2022-07-29T00:27:18.921Z,8.40
2022-07-29T00:29:46.203Z,8.60
2022-07-29T00:32:13.581Z,8.93
2022-07-29T00:34:59.323Z,10.05
2022-07-29T00:37:26.835Z,10.98
2022-07-29T00:39:53.982Z,8.48
2022-07-29T00:42:21.268Z,10.18
2022-07-29T00:44:48.729Z,8.75
2022-07-29T00:47:16.055Z,8.70
2022-07-29T00:49:44.048Z,5.95
2022-07-29T00:52:12.496Z,6.35
2022-07-29T00:54:44.638Z,13.70
2022-07-29T00:57:13.190Z,6.93
2022-07-29T00:59:40.537Z,8.68
2022-07-29T01:02:07.933Z,11.15
2022-07-29T01:04:35.650Z,8.20
2022-07-29T01:07:04.404Z,10.73
2022-07-29T01:09:35.079Z,9.90
2022-07-29T01:12:18.863Z,9.88
2022-07-29T01:14:51.125Z,8.13
2022-07-29T01:17:29.229Z,5.57
2022-07-29T01:20:32.212Z,7.35
2022-07-29T01:23:08.573Z,6.93
2022-07-29T01:26:10.825Z,6.72
2022-07-29T01:29:07.556Z,5.07
2022-07-29T01:31:59.041Z,4.70
2022-07-29T01:35:10.372Z,4.50
2022-07-29T01:38:12.719Z,7.10
2022-07-29T01:40:44.413Z,8.60
2022-07-29T01:43:15.822Z,8.23
2022-07-29T01:45:59.212Z,7.53
2022-07-29T01:48:35.490Z,6.05
2022-07-29T01:51:30.562Z,3.65
2022-07-29T01:54:19.677Z,5.78
2022-07-29T01:56:50.433Z,3.50
2022-07-29T01:59:19.223Z,5.05
2022-07-29T02:01:48.528Z,4.97
2022-07-29T02:04:29.192Z,2.33
2022-07-29T02:07:02.136Z,3.50
2022-07-29T02:09:31.023Z,3.40
2022-07-29T02:12:00.058Z,4.72
2022-07-29T02:14:29.926Z,4.20
2022-07-29T02:16:59.750Z,1.80
2022-07-29T02:19:28.823Z,6.15
2022-07-29T02:21:59.204Z,4.30
2022-07-29T02:24:27.860Z,3.38
2022-07-29T02:26:57.867Z,2.75
2022-07-29T02:29:27.672Z,3.13
2022-07-29T02:31:55.844Z,1.20
2022-07-29T02:34:23.857Z,2.33
2022-07-29T02:36:52.059Z,4.43
2022-07-29T02:39:20.423Z,2.00
2022-07-29T02:41:53.068Z,2.63
2022-07-29T02:44:22.727Z,4.40
2022-07-29T02:47:02.381Z,5.63
2022-07-29T02:50:04.982Z,6.90
2022-07-29T02:53:00.198Z,8.70
2022-07-29T02:55:46.260Z,7.32
2022-07-29T02:58:20.897Z,6.63
2022-07-29T03:00:50.394Z,6.60
2022-07-29T03:03:19.668Z,3.83
2022-07-29T03:05:47.230Z,9.18
2022-07-29T03:08:16.175Z,8.82
2022-07-29T03:10:47.005Z,9.43
2022-07-29T03:13:15.110Z,3.97
2022-07-29T03:15:45.123Z,6.15
2022-07-29T03:18:13.362Z,4.95
2022-07-29T03:20:40.970Z,3.97
2022-07-29T03:23:09.754Z,5.63
2022-07-29T03:25:37.102Z,3.08
2022-07-29T03:28:04.375Z,2.22
2022-07-29T03:30:32.194Z,5.63
2022-07-29T03:32:59.504Z,5.18
2022-07-29T03:35:26.890Z,3.47
2022-07-29T03:37:54.005Z,5.53
2022-07-29T03:40:39.740Z,3.47
2022-07-29T03:43:10.080Z,5.82
2022-07-29T03:45:38.674Z,6.00
2022-07-29T03:48:10.248Z,5.57
2022-07-29T03:50:37.972Z,3.97
2022-07-29T03:53:05.457Z,4.80
2022-07-29T03:55:41.363Z,2.78
2022-07-29T03:58:09.589Z,6.13
2022-07-29T04:00:38.993Z,9.60
2022-07-29T04:03:10.870Z,8.20
2022-07-29T04:05:39.061Z,13.30
2022-07-29T04:08:06.764Z,6.15
2022-07-29T04:10:35.734Z,6.22
2022-07-29T04:13:03.115Z,3.58
2022-07-29T04:15:30.994Z,4.18
2022-07-29T04:17:59.723Z,1.42
2022-07-29T04:20:27.074Z,2.47
2022-07-29T04:22:54.587Z,3.25
2022-07-29T04:25:21.817Z,3.08
2022-07-29T04:28:07.316Z,4.07
2022-07-29T04:30:36.041Z,0.73
2022-07-29T04:33:06.492Z,3.33
2022-07-29T04:35:38.565Z,1.15
2022-07-29T04:38:15.832Z,1.73
2022-07-29T04:40:44.440Z,2.58
2022-07-29T04:43:12.559Z,1.30
2022-07-29T04:45:41.400Z,1.17
2022-07-29T04:48:08.915Z,2.67
2022-07-29T04:50:36.358Z,3.58
2022-07-29T04:53:03.462Z,2.40
2022-07-29T04:55:30.713Z,4.05
2022-07-29T04:57:58.030Z,5.35
2022-07-29T05:00:33.225Z,3.72
2022-07-29T05:03:01.219Z,5.03
2022-07-29T05:05:28.492Z,4.55
2022-07-29T05:07:56.576Z,6.72
2022-07-29T05:10:24.076Z,4.55
2022-07-29T05:12:51.158Z,6.05
2022-07-29T05:15:19.010Z,1.85
2022-07-29T05:17:46.297Z,4.07
2022-07-29T05:20:13.399Z,4.13
2022-07-29T05:22:40.530Z,6.75
2022-07-29T05:25:09.313Z,5.47
2022-07-29T05:27:38.179Z,5.28
2022-07-29T05:30:05.881Z,5.50
2022-07-29T05:32:33.313Z,6.40
2022-07-29T05:35:00.480Z,4.35
2022-07-29T05:37:27.642Z,6.63
2022-07-29T05:39:56.511Z,9.57
2022-07-29T05:42:26.254Z,11.00
2022-07-29T05:44:53.949Z,11.88
2022-07-29T05:47:21.277Z,8.05
2022-07-29T05:49:48.456Z,6.60
2022-07-29T05:52:16.137Z,10.77
2022-07-29T05:54:43.349Z,5.47
2022-07-29T05:57:17.238Z,6.68
2022-07-29T05:59:44.383Z,6.18
2022-07-29T06:02:11.612Z,75.90
2022-07-29T06:04:39.094Z,6.70
2022-07-29T06:07:06.791Z,5.75
2022-07-29T06:09:36.389Z,6.78
2022-07-29T06:12:04.086Z,6.43
2022-07-29T06:14:31.389Z,4.18
2022-07-29T06:16:58.456Z,5.35
2022-07-29T06:19:25.684Z,3.30
2022-07-29T06:21:52.866Z,5.55
2022-07-29T06:24:20.393Z,6.45
2022-07-29T06:26:47.716Z,6.00
2022-07-29T06:29:14.904Z,6.13
2022-07-29T06:31:42.089Z,7.22
2022-07-29T06:34:09.504Z,4.43
2022-07-29T06:36:39.739Z,5.18
2022-07-29T06:39:09.125Z,5.53
2022-07-29T06:41:36.875Z,4.40
2022-07-29T06:44:05.957Z,6.28
2022-07-29T06:46:33.581Z,5.22
2022-07-29T06:49:02.926Z,7.47
2022-07-29T06:51:30.397Z,6.63
2022-07-29T06:54:02.248Z,5.90
2022-07-29T06:56:39.524Z,7.40
2022-07-29T06:59:09.395Z,4.88
2022-07-29T07:01:38.514Z,5.85
2022-07-29T07:04:06.133Z,5.15
2022-07-29T07:06:33.573Z,5.90
2022-07-29T07:09:00.830Z,6.05
2022-07-29T07:11:28.497Z,4.25
2022-07-29T07:14:00.674Z,5.55
2022-07-29T07:16:30.499Z,6.22
2022-07-29T07:18:57.699Z,3.45
2022-07-29T07:21:24.865Z,3.90
2022-07-29T07:23:52.040Z,5.35
2022-07-29T07:26:19.273Z,3.47
2022-07-29T07:28:46.554Z,3.05
2022-07-29T07:31:13.797Z,3.88
2022-07-29T07:33:40.987Z,2.08
2022-07-29T07:36:08.238Z,1.20
2022-07-29T07:38:35.568Z,4.07
2022-07-29T07:41:02.926Z,2.60
2022-07-29T07:43:30.123Z,4.93
2022-07-29T07:45:57.263Z,5.97
2022-07-29T07:48:24.446Z,12.43
2022-07-29T07:50:52.006Z,11.95
2022-07-29T07:53:19.434Z,10.93
2022-07-29T07:58:37.694Z,7.45
2022-07-29T08:01:04.916Z,13.13
2022-07-29T08:03:32.093Z,11.40
2022-07-29T08:05:59.454Z,11.52
2022-07-29T08:08:26.616Z,12.93
2022-07-29T08:10:53.764Z,11.18
2022-07-29T08:13:22.594Z,12.60
2022-07-29T08:15:59.018Z,14.27
2022-07-29T08:18:30.533Z,10.73
2022-07-29T08:20:58.638Z,11.20
2022-07-29T08:23:32.970Z,6.85
2022-07-29T08:26:15.040Z,9.18
2022-07-29T08:28:49.941Z,8.52
2022-07-29T08:31:18.018Z,8.95
2022-07-29T08:33:45.186Z,8.40
2022-07-29T08:36:14.177Z,10.80
2022-07-29T08:38:41.544Z,6.30
2022-07-29T08:41:08.755Z,6.43
2022-07-29T08:43:38.693Z,7.50
2022-07-29T08:46:06.233Z,9.95
2022-07-29T08:48:34.539Z,10.55
2022-07-29T08:51:04.312Z,9.65
2022-07-29T08:53:32.263Z,6.05
2022-07-29T08:56:00.107Z,4.70
2022-07-29T08:58:31.433Z,5.75
2022-07-29T09:00:58.912Z,5.07
2022-07-29T09:03:31.144Z,7.70
2022-07-29T09:06:00.032Z,6.90
2022-07-29T09:08:27.689Z,4.20
2022-07-29T09:10:55.322Z,6.15
2022-07-29T09:13:23.239Z,2.95
2022-07-29T09:15:50.362Z,3.65
2022-07-29T09:18:39.550Z,3.47
2022-07-29T09:21:30.907Z,3.92
2022-07-29T09:24:02.682Z,3.50
2022-07-29T09:26:32.200Z,3.95
2022-07-29T09:29:00.487Z,3.30
2022-07-29T09:31:36.469Z,3.65
2022-07-29T09:34:04.851Z,2.10
2022-07-29T09:36:32.145Z,2.22
2022-07-29T09:39:03.830Z,1.88
2022-07-29T09:41:31.346Z,4.78
2022-07-29T09:44:00.229Z,9.70
2022-07-29T09:46:27.551Z,11.00
2022-07-29T09:49:11.198Z,10.23
2022-07-29T09:51:38.962Z,10.75
2022-07-29T09:54:27.159Z,8.55
2022-07-29T09:56:55.527Z,8.88
2022-07-29T09:59:27.677Z,8.82
2022-07-29T10:01:55.522Z,18.00
2022-07-29T10:04:23.149Z,6.03
2022-07-29T10:07:05.488Z,6.05
2022-07-29T10:09:33.915Z,6.72
2022-07-29T10:12:08.433Z,11.65
2022-07-29T10:14:35.998Z,1.40
2022-07-29T10:17:04.899Z,1.60
2022-07-29T10:19:33.161Z,3.75
2022-07-29T10:22:01.332Z,2.60
2022-07-29T10:24:30.565Z,1.25
2022-07-29T10:26:59.420Z,2.40
2022-07-29T10:29:27.341Z,2.88
2022-07-29T10:32:31.833Z,2.58
2022-07-29T10:37:45.807Z,3.50
2022-07-29T10:41:06.662Z,1.95
2022-07-29T10:43:42.377Z,5.65
2022-07-29T10:46:10.803Z,6.00
2022-07-29T10:49:17.560Z,6.82
2022-07-29T10:51:59.326Z,6.60
2022-07-29T10:54:48.788Z,9.05
2022-07-29T10:57:25.633Z,4.20
2022-07-29T11:00:27.233Z,6.65
2022-07-29T11:02:57.135Z,9.20
2022-07-29T11:05:32.061Z,4.75
2022-07-29T11:08:21.041Z,5.28
2022-07-29T11:11:15.907Z,5.40
2022-07-29T11:13:56.962Z,5.18
2022-07-29T11:16:25.442Z,9.07
2022-07-29T11:19:14.900Z,8.13
2022-07-29T11:21:54.710Z,6.35
2022-07-29T11:24:34.905Z,4.40
2022-07-29T11:27:13.529Z,6.70
2022-07-29T11:29:53.480Z,2.85
2022-07-29T11:32:23.155Z,3.40
2022-07-29T11:35:17.126Z,3.60
2022-07-29T11:38:23.763Z,4.88
2022-07-29T11:41:20.853Z,11.98
2022-07-29T11:43:50.596Z,3.47
2022-07-29T11:46:40.086Z,5.57
2022-07-29T11:49:10.325Z,12.30
2022-07-29T11:51:48.155Z,9.37
2022-07-29T11:54:27.568Z,9.60
2022-07-29T11:56:55.393Z,10.00
2022-07-29T11:59:22.796Z,9.55
2022-07-29T12:04:59.799Z,5.43
2022-07-29T12:07:03.416Z,4.45
2022-07-29T12:07:35.685Z,7.90
2022-07-29T12:10:03.688Z,5.07
2022-07-29T12:12:30.796Z,6.15
2022-07-29T12:14:57.967Z,4.88
2022-07-29T12:17:32.848Z,4.13
2022-07-29T12:20:04.424Z,3.60
2022-07-29T12:22:42.237Z,6.80
2022-07-29T12:25:32.321Z,5.13
2022-07-29T12:28:01.981Z,7.40
2022-07-29T12:30:51.753Z,5.25
2022-07-29T12:33:28.813Z,5.00
2022-07-29T12:36:09.439Z,5.47
2022-07-29T12:38:42.031Z,6.80
2022-07-29T12:41:09.213Z,5.20
2022-07-29T12:43:36.442Z,6.90
2022-07-29T12:46:15.406Z,9.23
2022-07-29T12:48:45.194Z,6.03
2022-07-29T12:51:15.584Z,8.13
2022-07-29T12:53:43.213Z,6.43
2022-07-29T12:59:24.365Z,4.57
2022-07-29T13:01:53.421Z,5.13
2022-07-29T13:04:32.215Z,7.20
2022-07-29T13:07:04.577Z,5.30
2022-07-29T13:09:43.375Z,6.90
2022-07-29T13:12:12.793Z,5.20
2022-07-29T13:14:42.650Z,7.45
2022-07-29T13:17:17.015Z,8.77
2022-07-29T13:19:51.154Z,7.70
2022-07-29T13:22:25.561Z,7.00
2022-07-29T13:24:57.782Z,11.48
2022-07-29T13:27:26.930Z,8.82
2022-07-29T13:29:57.775Z,11.48
2022-07-29T13:32:28.231Z,12.82
2022-07-29T13:35:05.594Z,13.85
2022-07-29T13:37:35.392Z,15.20
2022-07-29T13:40:04.646Z,14.80
2022-07-29T13:42:33.395Z,10.60
2022-07-29T13:45:01.159Z,13.02
2022-07-29T13:47:32.628Z,11.95
2022-07-29T13:50:05.308Z,14.82
2022-07-29T13:52:34.874Z,15.00
2022-07-29T13:55:02.472Z,21.05
2022-07-29T13:57:30.623Z,12.65
2022-07-29T13:59:58.168Z,13.20
2022-07-29T14:02:26.293Z,12.18
2022-07-29T14:04:55.187Z,12.82
2022-07-29T14:07:23.405Z,15.18
2022-07-29T14:09:51.410Z,15.32
2022-07-29T14:12:18.993Z,10.73
2022-07-29T14:14:47.286Z,10.40
2022-07-29T14:17:15.137Z,12.90
2022-07-29T14:19:42.802Z,14.65
2022-07-29T14:22:10.728Z,16.45
2022-07-29T14:24:38.503Z,10.18
2022-07-29T14:27:09.192Z,13.50
2022-07-29T14:29:38.180Z,16.58
2022-07-29T14:32:11.579Z,13.00
2022-07-29T14:34:39.508Z,16.95
2022-07-29T14:37:07.885Z,9.75
2022-07-29T14:39:42.837Z,11.38
2022-07-29T14:42:12.604Z,15.60
2022-07-29T14:44:41.376Z,18.95
2022-07-29T14:47:08.803Z,18.83
2022-07-29T14:49:36.674Z,19.45
2022-07-29T14:52:04.269Z,15.65
2022-07-29T14:54:31.471Z,14.55
2022-07-29T14:56:58.914Z,16.27
2022-07-29T14:59:27.426Z,16.33
2022-07-29T15:01:54.775Z,20.80
2022-07-29T15:04:22.254Z,26.67
2022-07-29T15:06:49.684Z,33.20
2022-07-29T15:09:16.983Z,23.77
2022-07-29T15:11:44.196Z,19.85
2022-07-29T15:14:11.522Z,18.88
2022-07-29T15:16:43.898Z,32.53
2022-07-29T15:19:13.767Z,21.38
2022-07-29T15:21:41.637Z,19.27
2022-07-29T15:24:15.653Z,25.10
2022-07-29T15:26:43.740Z,15.25
2022-07-29T15:29:11.045Z,22.05
2022-07-29T15:31:38.233Z,19.20
2022-07-29T15:34:06.295Z,20.58
2022-07-29T15:39:22.317Z,18.73
2022-07-29T15:41:49.831Z,19.20
2022-07-29T15:44:16.974Z,22.20
2022-07-29T15:47:02.854Z,25.95
2022-07-29T15:49:47.644Z,22.88
2022-07-29T15:52:19.348Z,19.30
2022-07-29T15:54:52.766Z,21.48
2022-07-29T15:57:19.921Z,17.05
2022-07-29T15:59:47.078Z,17.52
2022-07-29T16:02:14.171Z,21.45
2022-07-29T16:04:41.577Z,14.23
2022-07-29T16:07:08.771Z,21.00
2022-07-29T16:09:35.917Z,19.08
2022-07-29T16:12:03.165Z,20.58
2022-07-29T16:14:37.754Z,26.85
2022-07-29T16:17:05.039Z,27.27
2022-07-29T16:19:32.103Z,21.98
2022-07-29T16:21:59.986Z,25.30
2022-07-29T16:24:30.130Z,23.77
2022-07-29T16:26:57.858Z,19.20
2022-07-29T16:29:25.195Z,18.48
2022-07-29T16:31:53.506Z,22.05
2022-07-29T16:34:20.645Z,26.10
2022-07-29T16:36:48.050Z,26.88
2022-07-29T16:39:15.279Z,15.48
2022-07-29T16:41:42.636Z,21.63
2022-07-29T16:44:09.791Z,17.33
2022-07-29T16:46:39.618Z,20.40
2022-07-29T16:49:08.731Z,19.48
2022-07-29T16:51:35.912Z,21.00
2022-07-29T16:54:03.232Z,21.92
2022-07-29T16:56:30.408Z,20.70
2022-07-29T16:59:00.630Z,24.63
2022-07-29T17:01:28.039Z,30.45
2022-07-29T17:04:07.423Z,19.75
2022-07-29T17:06:39.324Z,20.67
2022-07-29T17:09:08.224Z,21.88
2022-07-29T17:11:53.686Z,21.55
2022-07-29T17:14:26.718Z,25.35
2022-07-29T17:17:00.469Z,19.45
2022-07-29T17:19:35.799Z,18.85
2022-07-29T17:22:18.729Z,17.83
2022-07-29T17:24:47.650Z,20.80
2022-07-29T17:27:15.208Z,17.50
2022-07-29T17:29:42.572Z,18.10
2022-07-29T17:32:11.188Z,19.17
2022-07-29T17:34:42.231Z,14.82
2022-07-29T17:37:11.591Z,18.70
2022-07-29T17:39:41.514Z,13.52
2022-07-29T17:42:10.642Z,16.33
2022-07-29T17:44:38.349Z,11.25
2022-07-29T17:47:07.938Z,12.55
2022-07-29T17:49:42.882Z,15.73
2022-07-29T17:52:10.233Z,20.48
2022-07-29T17:54:37.345Z,16.90
2022-07-29T17:57:04.649Z,11.82
2022-07-29T17:59:31.806Z,12.02
2022-07-29T18:01:59.016Z,12.57
2022-07-29T18:04:26.249Z,13.80
2022-07-29T18:06:53.443Z,12.15
2022-07-29T18:09:20.529Z,11.13
2022-07-29T18:11:49.155Z,11.32
2022-07-29T18:14:17.331Z,10.80
2022-07-29T18:16:44.560Z,12.93
2022-07-29T18:19:12.018Z,15.70
2022-07-29T18:21:51.325Z,17.08
2022-07-29T18:24:27.967Z,16.73
2022-07-29T18:26:55.575Z,11.70
2022-07-29T18:29:22.809Z,14.35
2022-07-29T18:31:50.501Z,16.35
2022-07-29T18:34:17.656Z,16.55
2022-07-29T18:36:46.097Z,16.45
2022-07-29T18:39:19.677Z,18.65
2022-07-29T18:41:50.197Z,15.68
2022-07-29T18:44:21.862Z,14.70
2022-07-29T18:46:49.938Z,14.40
2022-07-29T18:49:17.169Z,13.45
2022-07-29T18:51:44.533Z,12.77
2022-07-29T18:54:11.707Z,13.65
2022-07-29T18:56:38.999Z,10.27
2022-07-29T18:59:06.201Z,9.23
2022-07-29T19:01:33.634Z,15.13
2022-07-29T19:04:01.236Z,10.63
2022-07-29T19:06:28.335Z,11.50
2022-07-29T19:08:55.521Z,8.60
2022-07-29T19:11:23.693Z,10.23
2022-07-29T19:13:50.757Z,7.22
2022-07-29T19:16:18.837Z,10.40
2022-07-29T19:18:47.791Z,8.77
2022-07-29T19:21:15.422Z,8.52
2022-07-29T19:24:05.203Z,12.65
2022-07-29T19:26:31.814Z,11.98
2022-07-29T19:28:58.998Z,8.82
2022-07-29T19:31:26.233Z,9.75
2022-07-29T19:33:53.581Z,8.70
2022-07-29T19:36:21.010Z,7.38
2022-07-29T19:38:48.144Z,11.23
2022-07-29T19:41:17.545Z,9.52
2022-07-29T19:43:49.905Z,11.93
2022-07-29T19:46:19.661Z,16.05
2022-07-29T19:48:46.971Z,20.23
2022-07-29T19:51:14.209Z,17.50
2022-07-29T19:53:41.532Z,14.02
2022-07-29T19:56:09.071Z,19.30
2022-07-29T19:58:36.658Z,22.35
2022-07-29T20:01:10.318Z,19.95
2022-07-29T20:03:40.455Z,15.30
2022-07-29T20:06:08.054Z,18.17
2022-07-29T20:08:37.142Z,20.00
2022-07-29T20:11:04.356Z,18.67
2022-07-29T20:13:33.496Z,18.23
2022-07-29T20:16:02.353Z,12.93
2022-07-29T20:18:29.631Z,12.52
2022-07-29T20:20:57.827Z,15.90
2022-07-29T20:23:25.056Z,16.13
2022-07-29T20:25:52.416Z,18.42
2022-07-29T20:28:21.264Z,14.57
2022-07-29T20:30:48.539Z,16.15
2022-07-29T20:33:16.575Z,12.27
2022-07-29T20:35:44.100Z,13.85
2022-07-29T20:38:15.018Z,12.70
2022-07-29T20:40:45.270Z,16.33
2022-07-29T20:43:12.412Z,18.10
2022-07-29T20:45:39.883Z,16.55
2022-07-29T20:48:08.231Z,19.45
2022-07-29T20:50:36.340Z,18.58
2022-07-29T20:53:03.699Z,21.50
2022-07-29T20:55:32.295Z,22.73
2022-07-29T20:57:59.516Z,18.02
2022-07-29T21:00:26.708Z,21.00
2022-07-29T21:02:53.865Z,15.88
2022-07-29T21:05:21.225Z,19.00
2022-07-29T21:07:48.417Z,13.73
2022-07-29T21:10:18.525Z,14.75
2022-07-29T21:12:48.719Z,12.23
2022-07-29T21:15:16.896Z,13.18
2022-07-29T21:17:47.469Z,14.43
2022-07-29T21:20:17.263Z,11.63
2022-07-29T21:22:44.755Z,13.73
2022-07-29T21:25:12.398Z,15.55
2022-07-29T21:27:57.928Z,11.43
2022-07-29T21:30:25.068Z,13.48
2022-07-29T21:32:52.281Z,10.48
2022-07-29T21:35:35.929Z,7.90
2022-07-29T21:38:06.628Z,9.25
2022-07-29T21:40:33.902Z,15.43
2022-07-29T21:43:01.063Z,13.55
2022-07-29T21:45:28.232Z,14.07
2022-07-29T21:47:55.395Z,11.95
2022-07-29T21:50:22.580Z,9.88
2022-07-29T21:52:49.739Z,17.70
2022-07-29T21:55:18.006Z,10.35
2022-07-29T21:57:46.509Z,14.38
2022-07-29T22:00:17.007Z,13.52
2022-07-29T22:02:44.157Z,16.02
2022-07-29T22:05:14.985Z,10.10
2022-07-29T22:07:56.298Z,9.88
2022-07-29T22:10:26.043Z,13.65
2022-07-29T22:12:54.662Z,10.52
2022-07-29T22:15:22.202Z,14.07
2022-07-29T22:17:49.790Z,13.95
2022-07-29T22:20:17.369Z,19.92
2022-07-29T22:22:44.863Z,13.73
2022-07-29T22:25:12.305Z,14.23
2022-07-29T22:27:40.075Z,17.85
2022-07-29T22:30:08.111Z,20.17
2022-07-29T22:32:35.386Z,18.65
2022-07-29T22:35:02.537Z,16.23
2022-07-29T22:37:29.709Z,16.55
2022-07-29T22:39:57.123Z,18.35
2022-07-29T22:42:24.291Z,21.17
2022-07-29T22:44:51.644Z,15.13
2022-07-29T22:47:18.967Z,19.30
2022-07-29T22:50:06.768Z,13.43
2022-07-29T22:52:33.872Z,20.60
2022-07-29T22:55:01.081Z,20.65
2022-07-29T22:57:29.172Z,18.75
2022-07-29T22:59:56.399Z,14.30
2022-07-29T23:02:23.517Z,11.80
2022-07-29T23:04:50.666Z,13.32
2022-07-29T23:07:18.015Z,11.95
2022-07-29T23:09:45.157Z,9.55
2022-07-29T23:12:12.514Z,9.20
2022-07-29T23:14:39.926Z,9.05
2022-07-29T23:17:07.263Z,9.77
2022-07-29T23:19:34.520Z,11.30
2022-07-29T23:22:01.817Z,11.45
2022-07-29T23:24:29.020Z,10.55
2022-07-29T23:26:56.112Z,14.07
2022-07-29T23:29:23.250Z,10.40
2022-07-29T23:31:50.557Z,12.73
2022-07-29T23:34:17.725Z,11.30
2022-07-29T23:36:44.960Z,11.68
2022-07-29T23:39:13.532Z,10.35
2022-07-29T23:41:40.804Z,13.13
2022-07-29T23:44:08.385Z,14.70
2022-07-29T23:46:35.640Z,17.52
2022-07-29T23:49:02.836Z,16.48
2022-07-29T23:51:30.185Z,18.27
2022-07-29T23:53:57.444Z,15.63
2022-07-29T23:56:24.549Z,12.30
2022-07-29T23:58:51.768Z,13.70
